sensor_id;sensor_type;location;lat;lon;timestamp;temperature;humidity
4518;DHT22;2271;49.464;11.070;2023-09-19T00:01:42;19.20;99.90
4518;DHT22;2271;49.464;11.070;2023-09-19T00:04:11;19.30;99.90
4518;DHT22;2271;49.464;11.070;2023-09-19T00:06:38;19.20;99.90
4518;DHT22;2271;49.464;11.070;2023-09-19T00:09:04;19.10;99.90
4518;DHT22;2271;49.464;11.070;2023-09-19T00:11:30;19.10;99.90
4518;DHT22;2271;49.464;11.070;2023-09-19T00:13:56;19.10;99.90
4518;DHT22;2271;49.464;11.070;2023-09-19T00:16:24;19.10;99.90
4518;DHT22;2271;49.464;11.070;2023-09-19T00:18:51;19.10;99.90
4518;DHT22;2271;49.464;11.070;2023-09-19T00:21:16;19.10;99.90
4518;DHT22;2271;49.464;11.070;2023-09-19T00:23:42;19.10;99.90
4518;DHT22;2271;49.464;11.070;2023-09-19T00:26:08;19.00;99.90
4518;DHT22;2271;49.464;11.070;2023-09-19T00:28:33;19.00;99.90
4518;DHT22;2271;49.464;11.070;2023-09-19T00:30:59;19.00;99.90
4518;DHT22;2271;49.464;11.070;2023-09-19T00:33:27;19.00;99.90
4518;DHT22;2271;49.464;11.070;2023-09-19T00:35:56;19.00;99.90
4518;DHT22;2271;49.464;11.070;2023-09-19T00:38:22;19.00;99.90
4518;DHT22;2271;49.464;11.070;2023-09-19T00:40:53;19.00;99.90
4518;DHT22;2271;49.464;11.070;2023-09-19T00:43:19;19.00;99.90
4518;DHT22;2271;49.464;11.070;2023-09-19T00:45:49;19.00;99.90
4518;DHT22;2271;49.464;11.070;2023-09-19T00:48:16;19.00;99.90
4518;DHT22;2271;49.464;11.070;2023-09-19T00:50:43;19.00;99.90
4518;DHT22;2271;49.464;11.070;2023-09-19T00:53:09;18.90;99.90
4518;DHT22;2271;49.464;11.070;2023-09-19T00:55:40;18.90;99.90
4518;DHT22;2271;49.464;11.070;2023-09-19T00:58:10;18.80;99.90
4518;DHT22;2271;49.464;11.070;2023-09-19T01:00:36;18.80;99.90
4518;DHT22;2271;49.464;11.070;2023-09-19T01:03:02;18.80;99.90
4518;DHT22;2271;49.464;11.070;2023-09-19T01:05:28;18.80;99.90
4518;DHT22;2271;49.464;11.070;2023-09-19T01:07:55;18.70;99.90
4518;DHT22;2271;49.464;11.070;2023-09-19T01:10:21;18.70;99.90
4518;DHT22;2271;49.464;11.070;2023-09-19T01:15:51;18.70;99.90
4518;DHT22;2271;49.464;11.070;2023-09-19T01:29:36;18.60;99.90
4518;DHT22;2271;49.464;11.070;2023-09-19T01:32:05;18.60;99.90
4518;DHT22;2271;49.464;11.070;2023-09-19T01:34:48;18.60;99.90
4518;DHT22;2271;49.464;11.070;2023-09-19T01:37:18;18.60;99.90
4518;DHT22;2271;49.464;11.070;2023-09-19T01:42:38;18.60;99.90
4518;DHT22;2271;49.464;11.070;2023-09-19T01:47:46;18.70;99.90
4518;DHT22;2271;49.464;11.070;2023-09-19T01:50:38;18.80;99.90
4518;DHT22;2271;49.464;11.070;2023-09-19T01:53:15;18.80;99.90
4518;DHT22;2271;49.464;11.070;2023-09-19T01:55:48;18.80;99.90
4518;DHT22;2271;49.464;11.070;2023-09-19T01:58:20;18.90;99.90
4518;DHT22;2271;49.464;11.070;2023-09-19T02:00:49;18.90;99.90
4518;DHT22;2271;49.464;11.070;2023-09-19T02:03:18;19.00;99.90
4518;DHT22;2271;49.464;11.070;2023-09-19T02:05:52;19.00;99.90
4518;DHT22;2271;49.464;11.070;2023-09-19T02:08:20;19.00;99.90
4518;DHT22;2271;49.464;11.070;2023-09-19T02:10:46;19.00;99.90
4518;DHT22;2271;49.464;11.070;2023-09-19T02:13:19;19.00;99.90
4518;DHT22;2271;49.464;11.070;2023-09-19T02:15:45;19.00;99.90
4518;DHT22;2271;49.464;11.070;2023-09-19T02:18:14;19.00;99.90
4518;DHT22;2271;49.464;11.070;2023-09-19T02:20:40;19.00;99.90
4518;DHT22;2271;49.464;11.070;2023-09-19T02:23:06;19.00;99.90
4518;DHT22;2271;49.464;11.070;2023-09-19T02:25:33;19.00;99.90
4518;DHT22;2271;49.464;11.070;2023-09-19T02:28:00;19.00;99.90
4518;DHT22;2271;49.464;11.070;2023-09-19T02:30:28;19.00;99.90
4518;DHT22;2271;49.464;11.070;2023-09-19T02:32:54;19.00;99.90
4518;DHT22;2271;49.464;11.070;2023-09-19T02:35:20;19.00;99.90
4518;DHT22;2271;49.464;11.070;2023-09-19T02:37:46;19.10;99.90
4518;DHT22;2271;49.464;11.070;2023-09-19T02:40:12;19.10;99.90
4518;DHT22;2271;49.464;11.070;2023-09-19T02:42:55;19.10;99.90
4518;DHT22;2271;49.464;11.070;2023-09-19T02:45:21;19.10;99.90
4518;DHT22;2271;49.464;11.070;2023-09-19T02:47:48;19.10;99.90
4518;DHT22;2271;49.464;11.070;2023-09-19T02:50:14;19.00;99.90
4518;DHT22;2271;49.464;11.070;2023-09-19T02:52:42;19.00;99.90
4518;DHT22;2271;49.464;11.070;2023-09-19T02:55:09;19.00;99.90
4518;DHT22;2271;49.464;11.070;2023-09-19T02:57:36;19.00;99.90
4518;DHT22;2271;49.464;11.070;2023-09-19T03:00:09;19.00;99.90
4518;DHT22;2271;49.464;11.070;2023-09-19T03:02:38;19.00;99.90
4518;DHT22;2271;49.464;11.070;2023-09-19T03:05:06;19.00;99.90
4518;DHT22;2271;49.464;11.070;2023-09-19T03:07:32;19.00;99.90
4518;DHT22;2271;49.464;11.070;2023-09-19T03:09:59;19.00;99.90
4518;DHT22;2271;49.464;11.070;2023-09-19T03:12:26;19.00;99.90
4518;DHT22;2271;49.464;11.070;2023-09-19T03:14:51;19.00;99.90
4518;DHT22;2271;49.464;11.070;2023-09-19T03:17:17;19.00;99.90
4518;DHT22;2271;49.464;11.070;2023-09-19T03:19:45;18.90;99.90
4518;DHT22;2271;49.464;11.070;2023-09-19T03:22:12;18.90;99.90
4518;DHT22;2271;49.464;11.070;2023-09-19T03:24:38;18.90;99.90
4518;DHT22;2271;49.464;11.070;2023-09-19T03:27:03;18.90;99.90
4518;DHT22;2271;49.464;11.070;2023-09-19T03:29:29;18.90;99.90
4518;DHT22;2271;49.464;11.070;2023-09-19T03:31:55;18.90;99.90
4518;DHT22;2271;49.464;11.070;2023-09-19T03:34:21;18.90;99.90
4518;DHT22;2271;49.464;11.070;2023-09-19T03:36:46;18.90;99.90
4518;DHT22;2271;49.464;11.070;2023-09-19T03:39:12;18.80;99.90
4518;DHT22;2271;49.464;11.070;2023-09-19T03:41:41;18.90;99.90
4518;DHT22;2271;49.464;11.070;2023-09-19T03:44:07;18.80;99.90
4518;DHT22;2271;49.464;11.070;2023-09-19T03:46:33;18.80;99.90
4518;DHT22;2271;49.464;11.070;2023-09-19T03:49:00;18.80;99.90
4518;DHT22;2271;49.464;11.070;2023-09-19T03:51:26;18.80;99.90
4518;DHT22;2271;49.464;11.070;2023-09-19T03:53:51;18.80;99.90
4518;DHT22;2271;49.464;11.070;2023-09-19T03:56:17;18.80;99.90
4518;DHT22;2271;49.464;11.070;2023-09-19T03:58:43;18.80;99.90
4518;DHT22;2271;49.464;11.070;2023-09-19T04:01:08;18.70;99.90
4518;DHT22;2271;49.464;11.070;2023-09-19T04:03:34;18.70;99.90
4518;DHT22;2271;49.464;11.070;2023-09-19T04:06:11;18.60;99.90
4518;DHT22;2271;49.464;11.070;2023-09-19T04:08:37;18.60;99.90
4518;DHT22;2271;49.464;11.070;2023-09-19T04:11:03;18.50;99.90
4518;DHT22;2271;49.464;11.070;2023-09-19T04:13:28;18.60;99.90
4518;DHT22;2271;49.464;11.070;2023-09-19T04:15:55;18.60;99.90
4518;DHT22;2271;49.464;11.070;2023-09-19T04:18:21;18.60;99.90
4518;DHT22;2271;49.464;11.070;2023-09-19T04:20:51;18.60;99.90
4518;DHT22;2271;49.464;11.070;2023-09-19T04:23:17;18.60;99.90
4518;DHT22;2271;49.464;11.070;2023-09-19T04:25:45;18.60;99.90
4518;DHT22;2271;49.464;11.070;2023-09-19T04:28:11;18.60;99.90
4518;DHT22;2271;49.464;11.070;2023-09-19T04:30:37;18.60;99.90
4518;DHT22;2271;49.464;11.070;2023-09-19T04:33:03;18.50;99.90
4518;DHT22;2271;49.464;11.070;2023-09-19T04:35:29;18.50;99.90
4518;DHT22;2271;49.464;11.070;2023-09-19T04:37:57;18.60;99.90
4518;DHT22;2271;49.464;11.070;2023-09-19T04:40:23;18.60;99.90
4518;DHT22;2271;49.464;11.070;2023-09-19T04:42:57;18.60;99.90
4518;DHT22;2271;49.464;11.070;2023-09-19T04:45:23;18.60;99.90
4518;DHT22;2271;49.464;11.070;2023-09-19T04:47:49;18.60;99.90
4518;DHT22;2271;49.464;11.070;2023-09-19T04:50:15;18.60;99.90
4518;DHT22;2271;49.464;11.070;2023-09-19T04:52:44;18.60;99.90
4518;DHT22;2271;49.464;11.070;2023-09-19T04:55:14;18.50;99.90
4518;DHT22;2271;49.464;11.070;2023-09-19T04:57:46;18.50;99.90
4518;DHT22;2271;49.464;11.070;2023-09-19T05:00:22;18.60;99.90
4518;DHT22;2271;49.464;11.070;2023-09-19T05:02:55;18.60;99.90
4518;DHT22;2271;49.464;11.070;2023-09-19T05:05:21;18.50;99.90
4518;DHT22;2271;49.464;11.070;2023-09-19T05:07:48;18.50;99.90
4518;DHT22;2271;49.464;11.070;2023-09-19T05:10:14;18.60;99.90
4518;DHT22;2271;49.464;11.070;2023-09-19T05:12:40;18.50;99.90
4518;DHT22;2271;49.464;11.070;2023-09-19T05:15:07;18.60;99.90
4518;DHT22;2271;49.464;11.070;2023-09-19T05:17:33;18.60;99.90
4518;DHT22;2271;49.464;11.070;2023-09-19T05:20:00;18.60;99.90
4518;DHT22;2271;49.464;11.070;2023-09-19T05:22:46;18.60;99.90
4518;DHT22;2271;49.464;11.070;2023-09-19T05:25:12;18.60;99.90
4518;DHT22;2271;49.464;11.070;2023-09-19T05:27:43;18.60;99.90
4518;DHT22;2271;49.464;11.070;2023-09-19T05:30:09;18.70;99.90
4518;DHT22;2271;49.464;11.070;2023-09-19T05:32:35;18.70;99.90
4518;DHT22;2271;49.464;11.070;2023-09-19T05:35:01;18.80;99.90
4518;DHT22;2271;49.464;11.070;2023-09-19T05:37:26;18.80;99.90
4518;DHT22;2271;49.464;11.070;2023-09-19T05:39:52;18.80;99.90
4518;DHT22;2271;49.464;11.070;2023-09-19T05:42:20;18.80;99.90
4518;DHT22;2271;49.464;11.070;2023-09-19T05:44:46;18.80;99.90
4518;DHT22;2271;49.464;11.070;2023-09-19T05:47:12;18.80;99.90
4518;DHT22;2271;49.464;11.070;2023-09-19T05:49:38;18.80;99.90
4518;DHT22;2271;49.464;11.070;2023-09-19T05:52:07;18.80;99.90
4518;DHT22;2271;49.464;11.070;2023-09-19T05:54:33;18.80;99.90
4518;DHT22;2271;49.464;11.070;2023-09-19T05:57:00;18.80;99.90
4518;DHT22;2271;49.464;11.070;2023-09-19T05:59:25;18.80;99.90
4518;DHT22;2271;49.464;11.070;2023-09-19T06:01:51;18.80;99.90
4518;DHT22;2271;49.464;11.070;2023-09-19T06:04:17;18.80;99.90
4518;DHT22;2271;49.464;11.070;2023-09-19T06:06:44;18.90;99.90
4518;DHT22;2271;49.464;11.070;2023-09-19T06:09:10;18.90;99.90
4518;DHT22;2271;49.464;11.070;2023-09-19T06:11:36;18.90;99.90
4518;DHT22;2271;49.464;11.070;2023-09-19T06:14:04;18.90;99.90
4518;DHT22;2271;49.464;11.070;2023-09-19T06:16:30;18.90;99.90
4518;DHT22;2271;49.464;11.070;2023-09-19T06:18:57;19.00;99.90
4518;DHT22;2271;49.464;11.070;2023-09-19T06:21:26;19.00;99.90
4518;DHT22;2271;49.464;11.070;2023-09-19T06:23:52;19.00;99.90
4518;DHT22;2271;49.464;11.070;2023-09-19T06:26:18;19.00;99.90
4518;DHT22;2271;49.464;11.070;2023-09-19T06:28:44;19.00;99.90
4518;DHT22;2271;49.464;11.070;2023-09-19T06:31:10;19.10;99.90
4518;DHT22;2271;49.464;11.070;2023-09-19T06:33:37;19.20;99.90
4518;DHT22;2271;49.464;11.070;2023-09-19T06:36:06;20.00;99.90
4518;DHT22;2271;49.464;11.070;2023-09-19T06:38:32;19.80;99.90
4518;DHT22;2271;49.464;11.070;2023-09-19T06:41:00;20.50;99.90
4518;DHT22;2271;49.464;11.070;2023-09-19T06:43:26;23.80;99.90
4518;DHT22;2271;49.464;11.070;2023-09-19T06:45:54;29.10;99.90
4518;DHT22;2271;49.464;11.070;2023-09-19T06:48:20;32.70;99.90
4518;DHT22;2271;49.464;11.070;2023-09-19T06:50:46;35.40;99.90
4518;DHT22;2271;49.464;11.070;2023-09-19T06:53:13;36.80;96.90
4518;DHT22;2271;49.464;11.070;2023-09-19T06:55:39;37.50;93.90
4518;DHT22;2271;49.464;11.070;2023-09-19T06:58:05;38.20;91.00
4518;DHT22;2271;49.464;11.070;2023-09-19T07:00:31;38.90;87.40
4518;DHT22;2271;49.464;11.070;2023-09-19T07:03:03;39.30;83.70
4518;DHT22;2271;49.464;11.070;2023-09-19T07:05:30;39.20;81.50
4518;DHT22;2271;49.464;11.070;2023-09-19T07:07:57;39.00;77.70
4518;DHT22;2271;49.464;11.070;2023-09-19T07:10:29;38.00;78.70
4518;DHT22;2271;49.464;11.070;2023-09-19T07:12:59;36.70;81.30
4518;DHT22;2271;49.464;11.070;2023-09-19T07:15:27;35.60;83.70
4518;DHT22;2271;49.464;11.070;2023-09-19T07:17:53;32.50;85.70
4518;DHT22;2271;49.464;11.070;2023-09-19T07:20:22;34.20;86.10
4518;DHT22;2271;49.464;11.070;2023-09-19T07:22:52;35.80;82.10
4518;DHT22;2271;49.464;11.070;2023-09-19T07:25:18;34.80;83.60
4518;DHT22;2271;49.464;11.070;2023-09-19T07:27:44;36.60;80.60
4518;DHT22;2271;49.464;11.070;2023-09-19T07:30:11;36.50;78.70
4518;DHT22;2271;49.464;11.070;2023-09-19T07:32:37;35.60;80.20
4518;DHT22;2271;49.464;11.070;2023-09-19T07:35:04;35.10;81.10
4518;DHT22;2271;49.464;11.070;2023-09-19T07:37:33;35.20;81.10
4518;DHT22;2271;49.464;11.070;2023-09-19T07:40:00;34.30;82.60
4518;DHT22;2271;49.464;11.070;2023-09-19T07:42:26;32.00;86.00
4518;DHT22;2271;49.464;11.070;2023-09-19T07:44:52;29.50;91.50
4518;DHT22;2271;49.464;11.070;2023-09-19T07:47:19;28.40;95.40
4518;DHT22;2271;49.464;11.070;2023-09-19T07:49:47;27.40;98.00
4518;DHT22;2271;49.464;11.070;2023-09-19T07:52:13;26.90;99.90
4518;DHT22;2271;49.464;11.070;2023-09-19T07:54:39;25.90;99.90
4518;DHT22;2271;49.464;11.070;2023-09-19T07:57:06;24.60;99.90
4518;DHT22;2271;49.464;11.070;2023-09-19T07:59:32;23.50;99.90
4518;DHT22;2271;49.464;11.070;2023-09-19T08:01:58;22.80;99.90
4518;DHT22;2271;49.464;11.070;2023-09-19T08:04:24;23.10;99.90
4518;DHT22;2271;49.464;11.070;2023-09-19T08:06:51;23.10;99.90
4518;DHT22;2271;49.464;11.070;2023-09-19T08:09:17;22.90;99.90
4518;DHT22;2271;49.464;11.070;2023-09-19T08:11:47;22.80;99.90
4518;DHT22;2271;49.464;11.070;2023-09-19T08:14:13;22.50;99.90
4518;DHT22;2271;49.464;11.070;2023-09-19T08:16:40;22.40;99.90
4518;DHT22;2271;49.464;11.070;2023-09-19T08:19:05;22.20;99.90
4518;DHT22;2271;49.464;11.070;2023-09-19T08:21:31;22.10;99.90
4518;DHT22;2271;49.464;11.070;2023-09-19T08:23:57;22.00;99.90
4518;DHT22;2271;49.464;11.070;2023-09-19T08:26:23;21.90;99.90
4518;DHT22;2271;49.464;11.070;2023-09-19T08:28:50;22.00;99.90
4518;DHT22;2271;49.464;11.070;2023-09-19T08:31:17;22.10;99.90
4518;DHT22;2271;49.464;11.070;2023-09-19T08:33:43;22.30;99.90
4518;DHT22;2271;49.464;11.070;2023-09-19T08:36:14;22.50;99.90
4518;DHT22;2271;49.464;11.070;2023-09-19T08:38:40;22.80;99.90
4518;DHT22;2271;49.464;11.070;2023-09-19T08:41:07;23.00;99.90
4518;DHT22;2271;49.464;11.070;2023-09-19T08:43:33;23.40;99.90
4518;DHT22;2271;49.464;11.070;2023-09-19T08:48:31;24.10;99.90
4518;DHT22;2271;49.464;11.070;2023-09-19T08:51:07;24.00;99.90
4518;DHT22;2271;49.464;11.070;2023-09-19T08:54:24;23.70;99.90
4518;DHT22;2271;49.464;11.070;2023-09-19T08:56:41;23.30;99.90
4518;DHT22;2271;49.464;11.070;2023-09-19T08:59:08;23.20;99.90
4518;DHT22;2271;49.464;11.070;2023-09-19T09:01:35;23.10;99.90
4518;DHT22;2271;49.464;11.070;2023-09-19T09:04:02;23.30;99.90
4518;DHT22;2271;49.464;11.070;2023-09-19T09:06:29;23.40;99.90
4518;DHT22;2271;49.464;11.070;2023-09-19T09:08:55;23.50;99.90
4518;DHT22;2271;49.464;11.070;2023-09-19T09:11:22;23.30;99.90
4518;DHT22;2271;49.464;11.070;2023-09-19T09:13:50;23.20;99.90
4518;DHT22;2271;49.464;11.070;2023-09-19T09:16:15;23.00;99.90
4518;DHT22;2271;49.464;11.070;2023-09-19T09:18:45;22.60;99.90
4518;DHT22;2271;49.464;11.070;2023-09-19T09:21:11;22.40;99.90
4518;DHT22;2271;49.464;11.070;2023-09-19T09:23:37;22.10;99.90
4518;DHT22;2271;49.464;11.070;2023-09-19T09:26:04;21.70;99.90
4518;DHT22;2271;49.464;11.070;2023-09-19T09:28:33;21.60;99.90
4518;DHT22;2271;49.464;11.070;2023-09-19T09:30:59;21.50;99.90
4518;DHT22;2271;49.464;11.070;2023-09-19T09:33:28;21.20;99.90
4518;DHT22;2271;49.464;11.070;2023-09-19T09:36:02;21.10;99.90
4518;DHT22;2271;49.464;11.070;2023-09-19T09:38:30;21.00;99.90
4518;DHT22;2271;49.464;11.070;2023-09-19T09:41:09;21.00;99.90
4518;DHT22;2271;49.464;11.070;2023-09-19T09:43:42;21.20;99.90
4518;DHT22;2271;49.464;11.070;2023-09-19T09:46:15;21.40;99.90
4518;DHT22;2271;49.464;11.070;2023-09-19T09:49:08;21.50;99.90
4518;DHT22;2271;49.464;11.070;2023-09-19T09:54:17;21.50;99.90
4518;DHT22;2271;49.464;11.070;2023-09-19T09:56:57;21.50;99.90
4518;DHT22;2271;49.464;11.070;2023-09-19T10:02:29;21.60;99.90
4518;DHT22;2271;49.464;11.070;2023-09-19T10:04:58;21.60;99.90
4518;DHT22;2271;49.464;11.070;2023-09-19T10:07:32;21.60;99.90
4518;DHT22;2271;49.464;11.070;2023-09-19T10:10:05;21.60;99.90
4518;DHT22;2271;49.464;11.070;2023-09-19T10:12:49;21.50;99.90
4518;DHT22;2271;49.464;11.070;2023-09-19T10:15:21;21.60;99.90
4518;DHT22;2271;49.464;11.070;2023-09-19T10:17:51;21.70;99.90
4518;DHT22;2271;49.464;11.070;2023-09-19T10:20:20;21.80;99.90
4518;DHT22;2271;49.464;11.070;2023-09-19T10:23:06;22.10;99.90
4518;DHT22;2271;49.464;11.070;2023-09-19T10:25:39;22.30;99.90
4518;DHT22;2271;49.464;11.070;2023-09-19T10:28:11;22.30;99.90
4518;DHT22;2271;49.464;11.070;2023-09-19T10:30:41;22.30;99.90
4518;DHT22;2271;49.464;11.070;2023-09-19T10:33:09;22.10;99.90
4518;DHT22;2271;49.464;11.070;2023-09-19T10:35:39;22.20;99.90
4518;DHT22;2271;49.464;11.070;2023-09-19T10:38:10;22.50;99.90
4518;DHT22;2271;49.464;11.070;2023-09-19T10:40:37;22.60;99.90
4518;DHT22;2271;49.464;11.070;2023-09-19T10:43:06;22.50;99.90
4518;DHT22;2271;49.464;11.070;2023-09-19T10:45:35;22.30;99.90
4518;DHT22;2271;49.464;11.070;2023-09-19T10:48:04;22.10;99.90
4518;DHT22;2271;49.464;11.070;2023-09-19T10:50:43;22.00;99.90
4518;DHT22;2271;49.464;11.070;2023-09-19T10:53:11;22.00;99.90
4518;DHT22;2271;49.464;11.070;2023-09-19T10:55:38;22.00;99.90
4518;DHT22;2271;49.464;11.070;2023-09-19T10:58:05;22.20;99.90
4518;DHT22;2271;49.464;11.070;2023-09-19T11:01:06;22.40;99.90
4518;DHT22;2271;49.464;11.070;2023-09-19T11:03:38;22.80;99.90
4518;DHT22;2271;49.464;11.070;2023-09-19T11:06:16;22.70;99.90
4518;DHT22;2271;49.464;11.070;2023-09-19T11:09:02;23.00;99.90
4518;DHT22;2271;49.464;11.070;2023-09-19T11:14:28;23.30;99.90
4518;DHT22;2271;49.464;11.070;2023-09-19T11:30:44;23.20;99.90
4518;DHT22;2271;49.464;11.070;2023-09-19T11:33:32;23.20;99.90
4518;DHT22;2271;49.464;11.070;2023-09-19T11:44:31;22.80;99.90
4518;DHT22;2271;49.464;11.070;2023-09-19T11:46:53;22.60;99.90
4518;DHT22;2271;49.464;11.070;2023-09-19T11:49:26;22.40;99.90
4518;DHT22;2271;49.464;11.070;2023-09-19T11:51:55;22.30;99.90
4518;DHT22;2271;49.464;11.070;2023-09-19T11:54:21;22.20;99.90
4518;DHT22;2271;49.464;11.070;2023-09-19T11:56:54;22.20;99.90
4518;DHT22;2271;49.464;11.070;2023-09-19T11:59:25;22.20;99.90
4518;DHT22;2271;49.464;11.070;2023-09-19T12:02:01;22.20;99.90
4518;DHT22;2271;49.464;11.070;2023-09-19T12:07:01;22.60;99.90
4518;DHT22;2271;49.464;11.070;2023-09-19T12:09:26;22.60;99.90
4518;DHT22;2271;49.464;11.070;2023-09-19T12:11:52;22.70;99.90
4518;DHT22;2271;49.464;11.070;2023-09-19T12:14:22;22.80;99.90
4518;DHT22;2271;49.464;11.070;2023-09-19T12:16:57;22.90;99.90
4518;DHT22;2271;49.464;11.070;2023-09-19T12:19:24;23.00;99.90
4518;DHT22;2271;49.464;11.070;2023-09-19T12:22:00;23.10;99.90
4518;DHT22;2271;49.464;11.070;2023-09-19T12:24:34;23.10;99.90
4518;DHT22;2271;49.464;11.070;2023-09-19T12:27:05;23.20;99.90
4518;DHT22;2271;49.464;11.070;2023-09-19T12:29:32;23.30;99.90
4518;DHT22;2271;49.464;11.070;2023-09-19T12:32:07;23.50;99.90
4518;DHT22;2271;49.464;11.070;2023-09-19T12:34:33;23.50;99.90
4518;DHT22;2271;49.464;11.070;2023-09-19T12:37:14;23.40;99.90
4518;DHT22;2271;49.464;11.070;2023-09-19T12:39:48;23.30;99.90
4518;DHT22;2271;49.464;11.070;2023-09-19T12:42:16;23.20;99.90
4518;DHT22;2271;49.464;11.070;2023-09-19T12:44:47;23.20;99.90
4518;DHT22;2271;49.464;11.070;2023-09-19T12:47:15;23.30;99.90
4518;DHT22;2271;49.464;11.070;2023-09-19T12:52:40;23.30;99.90
4518;DHT22;2271;49.464;11.070;2023-09-19T12:55:06;23.40;99.90
4518;DHT22;2271;49.464;11.070;2023-09-19T12:57:33;23.40;99.90
4518;DHT22;2271;49.464;11.070;2023-09-19T13:00:01;23.30;99.90
4518;DHT22;2271;49.464;11.070;2023-09-19T13:02:27;23.20;99.90
4518;DHT22;2271;49.464;11.070;2023-09-19T13:04:54;23.30;99.90
4518;DHT22;2271;49.464;11.070;2023-09-19T13:07:41;23.30;99.90
4518;DHT22;2271;49.464;11.070;2023-09-19T13:10:14;23.40;99.90
4518;DHT22;2271;49.464;11.070;2023-09-19T13:12:43;23.50;99.90
4518;DHT22;2271;49.464;11.070;2023-09-19T13:15:13;23.40;99.90
4518;DHT22;2271;49.464;11.070;2023-09-19T13:17:49;23.60;99.90
4518;DHT22;2271;49.464;11.070;2023-09-19T13:20:25;23.70;99.90
4518;DHT22;2271;49.464;11.070;2023-09-19T13:22:53;23.70;99.90
4518;DHT22;2271;49.464;11.070;2023-09-19T13:25:21;23.70;99.90
4518;DHT22;2271;49.464;11.070;2023-09-19T13:27:51;23.80;99.90
4518;DHT22;2271;49.464;11.070;2023-09-19T13:30:20;23.70;99.90
4518;DHT22;2271;49.464;11.070;2023-09-19T13:32:46;23.60;99.90
4518;DHT22;2271;49.464;11.070;2023-09-19T13:35:13;23.30;99.90
4518;DHT22;2271;49.464;11.070;2023-09-19T13:37:39;23.30;99.90
4518;DHT22;2271;49.464;11.070;2023-09-19T13:40:12;23.50;99.90
4518;DHT22;2271;49.464;11.070;2023-09-19T13:42:37;23.50;99.90
4518;DHT22;2271;49.464;11.070;2023-09-19T13:45:04;23.50;99.90
4518;DHT22;2271;49.464;11.070;2023-09-19T13:47:30;23.50;99.90
4518;DHT22;2271;49.464;11.070;2023-09-19T13:49:56;23.50;99.90
4518;DHT22;2271;49.464;11.070;2023-09-19T13:52:22;23.50;99.90
4518;DHT22;2271;49.464;11.070;2023-09-19T13:54:50;23.30;99.90
4518;DHT22;2271;49.464;11.070;2023-09-19T13:57:16;23.30;99.90
4518;DHT22;2271;49.464;11.070;2023-09-19T13:59:42;23.50;99.90
4518;DHT22;2271;49.464;11.070;2023-09-19T14:02:08;23.60;99.90
4518;DHT22;2271;49.464;11.070;2023-09-19T14:04:33;23.70;99.90
4518;DHT22;2271;49.464;11.070;2023-09-19T14:07:02;23.80;99.90
4518;DHT22;2271;49.464;11.070;2023-09-19T14:09:30;23.80;99.90
4518;DHT22;2271;49.464;11.070;2023-09-19T14:11:55;23.90;99.90
4518;DHT22;2271;49.464;11.070;2023-09-19T14:14:22;23.90;99.90
4518;DHT22;2271;49.464;11.070;2023-09-19T14:16:48;23.90;99.90
4518;DHT22;2271;49.464;11.070;2023-09-19T14:19:13;23.80;99.90
4518;DHT22;2271;49.464;11.070;2023-09-19T14:21:42;23.70;99.90
4518;DHT22;2271;49.464;11.070;2023-09-19T14:24:08;23.70;99.90
4518;DHT22;2271;49.464;11.070;2023-09-19T14:26:38;23.80;99.90
4518;DHT22;2271;49.464;11.070;2023-09-19T14:29:03;23.80;99.90
4518;DHT22;2271;49.464;11.070;2023-09-19T14:31:29;23.80;99.90
4518;DHT22;2271;49.464;11.070;2023-09-19T14:33:55;23.80;99.90
4518;DHT22;2271;49.464;11.070;2023-09-19T14:36:22;23.80;99.90
4518;DHT22;2271;49.464;11.070;2023-09-19T14:38:47;23.80;99.90
4518;DHT22;2271;49.464;11.070;2023-09-19T14:41:13;23.70;99.90
4518;DHT22;2271;49.464;11.070;2023-09-19T14:43:38;23.70;99.90
4518;DHT22;2271;49.464;11.070;2023-09-19T14:46:05;23.60;99.90
4518;DHT22;2271;49.464;11.070;2023-09-19T14:48:33;23.50;99.90
4518;DHT22;2271;49.464;11.070;2023-09-19T14:51:06;23.30;99.90
4518;DHT22;2271;49.464;11.070;2023-09-19T14:53:34;23.20;99.90
4518;DHT22;2271;49.464;11.070;2023-09-19T14:56:03;23.20;99.90
4518;DHT22;2271;49.464;11.070;2023-09-19T14:58:30;23.20;99.90
4518;DHT22;2271;49.464;11.070;2023-09-19T15:01:07;23.20;99.90
4518;DHT22;2271;49.464;11.070;2023-09-19T15:03:33;23.10;99.90
4518;DHT22;2271;49.464;11.070;2023-09-19T15:06:03;23.00;99.90
4518;DHT22;2271;49.464;11.070;2023-09-19T15:08:33;23.00;99.90
4518;DHT22;2271;49.464;11.070;2023-09-19T15:11:04;22.90;99.90
4518;DHT22;2271;49.464;11.070;2023-09-19T15:13:31;22.90;99.90
4518;DHT22;2271;49.464;11.070;2023-09-19T15:16:05;22.80;99.90
4518;DHT22;2271;49.464;11.070;2023-09-19T15:18:38;22.90;99.90
4518;DHT22;2271;49.464;11.070;2023-09-19T15:21:05;22.80;99.90
4518;DHT22;2271;49.464;11.070;2023-09-19T15:23:31;22.80;99.90
4518;DHT22;2271;49.464;11.070;2023-09-19T15:26:09;22.80;99.90
4518;DHT22;2271;49.464;11.070;2023-09-19T15:28:34;22.70;99.90
4518;DHT22;2271;49.464;11.070;2023-09-19T15:31:08;22.60;99.90
4518;DHT22;2271;49.464;11.070;2023-09-19T15:33:34;22.60;99.90
4518;DHT22;2271;49.464;11.070;2023-09-19T15:36:11;22.60;99.90
4518;DHT22;2271;49.464;11.070;2023-09-19T15:41:33;22.50;99.90
4518;DHT22;2271;49.464;11.070;2023-09-19T15:44:00;22.50;99.90
4518;DHT22;2271;49.464;11.070;2023-09-19T15:46:27;22.40;99.90
4518;DHT22;2271;49.464;11.070;2023-09-19T15:48:55;22.40;99.90
4518;DHT22;2271;49.464;11.070;2023-09-19T15:51:20;22.40;99.90
4518;DHT22;2271;49.464;11.070;2023-09-19T15:53:47;22.30;99.90
4518;DHT22;2271;49.464;11.070;2023-09-19T15:56:14;22.30;99.90
4518;DHT22;2271;49.464;11.070;2023-09-19T15:58:40;22.20;99.90
4518;DHT22;2271;49.464;11.070;2023-09-19T16:01:07;22.20;99.90
4518;DHT22;2271;49.464;11.070;2023-09-19T16:03:38;22.10;99.90
4518;DHT22;2271;49.464;11.070;2023-09-19T16:06:12;22.10;99.90
4518;DHT22;2271;49.464;11.070;2023-09-19T16:08:40;22.00;99.90
4518;DHT22;2271;49.464;11.070;2023-09-19T16:11:06;21.90;99.90
4518;DHT22;2271;49.464;11.070;2023-09-19T16:13:32;21.90;99.90
4518;DHT22;2271;49.464;11.070;2023-09-19T16:15:58;22.00;99.90
4518;DHT22;2271;49.464;11.070;2023-09-19T16:18:23;22.00;99.90
4518;DHT22;2271;49.464;11.070;2023-09-19T16:20:49;22.00;99.90
4518;DHT22;2271;49.464;11.070;2023-09-19T16:23:15;21.90;99.90
4518;DHT22;2271;49.464;11.070;2023-09-19T16:25:41;21.90;99.90
4518;DHT22;2271;49.464;11.070;2023-09-19T16:28:07;21.90;99.90
4518;DHT22;2271;49.464;11.070;2023-09-19T16:30:33;21.90;99.90
4518;DHT22;2271;49.464;11.070;2023-09-19T16:32:59;21.90;99.90
4518;DHT22;2271;49.464;11.070;2023-09-19T16:35:25;21.90;99.90
4518;DHT22;2271;49.464;11.070;2023-09-19T16:37:51;21.90;99.90
4518;DHT22;2271;49.464;11.070;2023-09-19T16:40:16;21.80;99.90
4518;DHT22;2271;49.464;11.070;2023-09-19T16:42:42;21.80;99.90
4518;DHT22;2271;49.464;11.070;2023-09-19T16:45:08;21.80;99.90
4518;DHT22;2271;49.464;11.070;2023-09-19T16:47:36;21.70;99.90
4518;DHT22;2271;49.464;11.070;2023-09-19T16:50:01;21.60;99.90
4518;DHT22;2271;49.464;11.070;2023-09-19T16:52:27;21.60;99.90
4518;DHT22;2271;49.464;11.070;2023-09-19T16:54:53;21.60;99.90